ADDS TAF Board (Experimental) INFO Settings
IDs: Format: Expanded Condensed

KMCO - Orlando Intl, FL, US

Issued at 1130 UTC 29 May 2015
Updated at: 1416 UTC 29 May 2015
Time1353Z 29/15Z 29/16Z 29/17Z 29/18Z 29/19Z 29/20Z 29/21Z 29/22Z 29/23Z 30/00Z 30/01Z 30/02Z 30/03Z
Type OBS PRVL PRVL PRVL PRVL PRVL PRVL PRVL PRVL PRVL PRVL PRVL PRVL PRVL
VIS 10 >6 >6 >6 >6 >6 >6 >6 >6 >6 >6 >6 >6 >6
CIG -- -- -- -- -- -- -- -- -- -- -- -- -- --
Cover FEW SCT SCT SCT SCT SCT SCT SCT SCT SCT SCT FEW FEW FEW
FltCat VFR VFR VFR VFR VFR VFR VFR VFR VFR VFR VFR VFR VFR VFR
WX -- -- -- -- -- -- -- -- -- -- -- -- -- --
WDir 90 70 70 70 70 70 70 70 70 70 70 60 60 60
WSpd 8 10 10 10 13 13 13 13 13 13 13 7 7 7
WGst -- -- -- -- -- -- -- -- -- -- -- -- -- --
R17/35
XWnd 8 9 9 9 12 12 12 12 12 12 12 6 6 6
HWnd 0 -3 -3 -3 -4 -4 -4 -4 -4 -4 -4 -3 -3 -3
R18/36
XWnd 8 9 9 9 12 12 12 12 12 12 12 6 6 6
HWnd 0 -3 -3 -3 -4 -4 -4 -4 -4 -4 -4 -3 -3 -3

NOTE: TEMPO conditions in [brackets]. Keep in mind TEMPO conditions might be better (lower impact) than prevailing conditions.

Raw TAF
KMCO 291130Z 2912/3012 07004KT P6SM FEW045
  FM291500 07010KT P6SM SCT035
  FM291800 07013KT P6SM SCT040
  FM300100 06007KT P6SM FEW035
  FM300600 04003KT P6SM SCT030


Raw METAR
KMCO 291353Z 09008KT 10SM FEW033 28/18 A3011 RMK AO2 SLP195 T02780178
KMCO 291253Z 07008KT 10SM FEW025 26/18 A3011 RMK AO2 SLP193 T02610183
KMCO 291153Z 08006KT 10SM CLR 23/18 A3009 RMK AO2 SLP188 T02330183 10233 20200 53005

METAR Board
Radar Display
Forecast Discussion

TAF Board Legend

Potential Impact
Threat None Slight Moderate High
Visibility (sm) ≥5.1 5.1>X≥3 3>X≥1 <1
Ceiling (100 ft) ≥30.1 30.1>X≥10 10>X≥5 <5
Wind Speed (kt) <10 10≤X<20 20≤X<30 ≥30
Wind Gust (kt) <15 15≤X<25 25≤X<35 ≥35
Weather No Wx Reported VCTS,-TS,-FZRA,SN TS,FZRA +TS,+FZRA,+SN